Time;durP1;ratioP1;P1;durP2;ratioP2;P2;SDS_P1;SDS_P2;PMS_P1;PMS_P2;Temp;Humidity;BMP_temperature;BMP_pressure;BME280_temperature;BME280_humidity;BME280_pressure;Samples;Min_cycle;Max_cycle;Signal;HPM_P1;HPM_P2
2023/07/20 00:01:25;;;;;;;;;;;;;;;12.93;87.61;101146.63;4945524;28;21693;-75
2023/07/20 00:03:54;;;;;;;4.07;2.65;;;;;;;12.90;87.75;101147.19;4945087;28;19946;-74
2023/07/20 00:06:25;;;;;;;2.83;2.05;;;;;;;12.90;88.07;101139.13;4946110;28;20039;-76
2023/07/20 00:08:51;;;;;;;6.80;2.38;;;;;;;12.90;88.67;101139.13;4944403;28;20432;-75
2023/07/20 00:11:18;;;;;;;2.15;1.60;;;;;;;12.91;88.32;101130.00;4946651;28;20042;-74
2023/07/20 00:13:44;;;;;;;2.45;2.08;;;;;;;12.93;88.42;101143.94;4943013;28;20110;-77
2023/07/20 00:16:10;;;;;;;;;;;;;;;12.95;89.35;101141.81;4923403;28;20027;-76
2023/07/20 00:18:36;;;;;;;4.50;1.90;;;;;;;12.94;89.12;101146.38;4928038;28;20041;-77
2023/07/20 00:21:02;;;;;;;2.95;1.98;;;;;;;12.98;89.11;101146.63;4939242;28;20039;-77
2023/07/20 00:23:28;;;;;;;2.58;2.08;;;;;;;13.01;88.99;101152.28;4945406;28;20154;-76
2023/07/20 00:25:54;;;;;;;4.82;2.20;;;;;;;13.04;88.92;101150.91;4943548;28;20035;-77
2023/07/20 00:28:20;;;;;;;2.90;2.05;;;;;;;13.09;88.76;101148.19;4945083;28;20038;-75
2023/07/20 00:30:48;;;;;;;4.47;2.78;;;;;;;13.12;89.33;101153.00;4942830;28;20042;-77
2023/07/20 00:33:17;;;;;;;3.70;2.42;;;;;;;13.12;89.59;101145.75;4906530;28;20039;-75
2023/07/20 00:35:42;;;;;;;3.92;2.60;;;;;;;13.14;89.72;101134.72;4943720;28;20118;-77
2023/07/20 00:38:10;;;;;;;3.40;2.30;;;;;;;13.16;89.72;101137.94;4936893;28;20126;-77
2023/07/20 00:40:40;;;;;;;2.45;1.85;;;;;;;13.18;89.11;101130.41;4944781;28;20478;-76
2023/07/20 00:43:06;;;;;;;2.70;2.15;;;;;;;13.22;88.93;101130.69;4970815;28;20094;-76
2023/07/20 00:45:34;;;;;;;2.75;1.80;;;;;;;13.24;89.38;101148.16;4944813;28;20035;-75
2023/07/20 00:48:03;;;;;;;4.78;2.33;;;;;;;13.27;90.13;101144.88;4921960;28;20039;-76
2023/07/20 00:50:30;;;;;;;3.65;2.15;;;;;;;13.28;89.76;101138.44;4943035;28;20038;-76
2023/07/20 00:52:57;;;;;;;3.33;2.70;;;;;;;13.30;89.51;101136.28;4902165;28;20045;-75
2023/07/20 00:55:25;;;;;;;4.70;2.67;;;;;;;13.33;89.74;101138.41;4925725;28;20426;-75
2023/07/20 00:57:51;;;;;;;5.43;2.83;;;;;;;13.35;89.78;101141.63;4943476;28;20812;-76
2023/07/20 01:00:18;;;;;;;4.88;2.20;;;;;;;13.39;90.21;101141.88;4937447;28;20051;-76
2023/07/20 01:02:44;;;;;;;;;;;;;;;13.42;90.56;101135.16;4946448;28;20062;-74
2023/07/20 01:05:12;;;;;;;7.85;3.15;;;;;;;13.41;90.45;101138.88;4923030;28;19922;-76
2023/07/20 01:07:59;;;;;;;4.88;2.10;;;;;;;13.40;90.63;101132.72;4912531;28;20051;-76
2023/07/20 01:11:25;;;;;;;5.78;2.42;;;;;;;13.41;90.04;101144.28;4929956;28;20038;-75
2023/07/20 01:13:52;;;;;;;4.22;2.40;;;;;;;13.42;90.01;101135.16;4871975;28;20053;-75
2023/07/20 01:16:28;;;;;;;4.13;2.38;;;;;;;13.42;89.95;101140.53;4927401;28;20046;-76
2023/07/20 01:18:55;;;;;;;3.28;2.40;;;;;;;13.43;90.13;101142.94;4912649;28;20074;-76
2023/07/20 01:21:55;;;;;;;4.78;2.70;;;;;;;13.48;89.89;101140.22;4914588;28;20032;-77
2023/07/20 01:24:50;;;;;;;3.92;2.55;;;;;;;13.53;90.35;101142.84;4929297;28;20067;-77
2023/07/20 01:27:38;;;;;;;8.30;2.63;;;;;;;13.53;90.22;101136.66;4913066;28;20075;-76
2023/07/20 01:30:40;;;;;;;4.82;3.13;;;;;;;13.54;90.54;101143.66;4912138;28;20039;-76
2023/07/20 01:33:18;;;;;;;6.10;2.78;;;;;;;13.48;90.98;101139.38;4866868;28;20067;-77
2023/07/20 01:35:59;;;;;;;5.75;3.33;;;;;;;13.47;91.17;101132.41;4927700;28;20047;-76
2023/07/20 01:38:31;;;;;;;5.28;3.05;;;;;;;13.49;91.15;101131.06;4923768;28;20051;-75
2023/07/20 01:41:04;;;;;;;4.82;2.55;;;;;;;13.47;90.91;101133.19;4929223;28;20035;-76
2023/07/20 01:43:32;;;;;;;6.93;3.22;;;;;;;13.47;91.23;101127.81;4944857;28;20126;-75
2023/07/20 01:45:58;;;;;;;7.03;3.70;;;;;;;13.48;90.82;101128.63;4920324;28;20039;-76
2023/07/20 01:48:24;;;;;;;;;;;;;;;13.50;91.40;101129.16;4944117;28;20047;-76
2023/07/20 01:50:50;;;;;;;6.78;3.53;;;;;;;13.44;91.10;101125.69;4942612;28;19925;-75
2023/07/20 01:53:21;;;;;;;8.30;3.20;;;;;;;13.44;91.18;101132.97;4911566;28;20124;-77
2023/07/20 01:55:54;;;;;;;5.03;3.45;;;;;;;13.37;91.29;101123.31;4939754;28;20051;-76
2023/07/20 01:58:25;;;;;;;4.65;2.95;;;;;;;13.39;91.93;101123.84;4971063;28;20101;-77
2023/07/20 02:01:03;;;;;;;7.53;4.10;;;;;;;13.46;91.82;101125.41;4929938;28;20039;-76
2023/07/20 02:03:35;;;;;;;4.65;3.10;;;;;;;13.42;91.58;101117.13;4924571;28;20105;-76
2023/07/20 02:06:03;;;;;;;5.30;3.33;;;;;;;13.45;91.25;101118.44;4934799;28;20047;-75
2023/07/20 02:08:34;;;;;;;5.28;3.25;;;;;;;13.44;91.68;101114.13;4943964;28;20027;-76
2023/07/20 02:11:04;;;;;;;8.73;3.40;;;;;;;13.44;91.71;101127.59;4905759;28;20062;-76
2023/07/20 02:13:30;;;;;;;4.68;3.75;;;;;;;13.43;91.56;101118.72;4924891;28;20448;-75
2023/07/20 02:15:56;;;;;;;3.85;3.45;;;;;;;13.42;91.45;101125.19;4934655;28;20039;-76
2023/07/20 02:18:21;;;;;;;3.47;2.60;;;;;;;13.43;90.95;101120.59;4944791;28;21060;-78
2023/07/20 02:20:47;;;;;;;3.90;3.08;;;;;;;13.44;91.19;101132.97;4927246;28;20070;-76
2023/07/20 02:23:12;;;;;;;4.43;3.40;;;;;;;13.42;91.04;101133.25;4936942;28;20031;-77
2023/07/20 02:25:39;;;;;;;4.78;3.40;;;;;;;13.42;91.40;101148.59;4974774;28;20496;-78
2023/07/20 02:28:09;;;;;;;8.23;4.50;;;;;;;13.46;93.08;101146.94;4937890;28;20134;-82
2023/07/20 02:30:40;;;;;;;5.18;4.10;;;;;;;13.40;92.86;101143.47;4928308;28;20046;-78
2023/07/20 02:33:07;;;;;;;6.05;4.30;;;;;;;13.43;93.34;101142.13;4917455;28;20043;-78
2023/07/20 02:35:33;;;;;;;7.30;4.50;;;;;;;13.46;93.30;101146.94;4942334;28;20501;-80
2023/07/20 02:37:58;;;;;;;6.00;4.50;;;;;;;13.49;93.58;101143.72;4942099;28;20051;-80
2023/07/20 02:40:24;;;;;;;5.53;3.90;;;;;;;13.51;93.66;101146.91;4945185;28;20039;-79
2023/07/20 02:42:49;;;;;;;7.10;5.05;;;;;;;13.49;93.43;101136.44;4946136;28;20043;-80
2023/07/20 02:45:16;;;;;;;8.50;4.28;;;;;;;13.51;93.50;101136.16;4942723;28;20113;-80
2023/07/20 02:47:43;;;;;;;7.95;4.07;;;;;;;13.52;93.19;101143.13;4946866;28;20031;-79
2023/07/20 02:50:09;;;;;;;5.75;3.90;;;;;;;13.52;92.23;101143.13;4939469;28;20047;-80
2023/07/20 02:52:34;;;;;;;8.00;4.22;;;;;;;13.52;92.50;101146.63;4946603;28;20042;-80
2023/07/20 02:55:00;;;;;;;4.15;3.60;;;;;;;13.52;92.90;101140.44;4922484;28;20039;-79
2023/07/20 02:57:27;;;;;;;6.18;3.95;;;;;;;13.50;92.73;101146.13;4946433;28;20397;-80
2023/07/20 02:59:53;;;;;;;4.20;3.60;;;;;;;13.47;92.98;101148.53;4944004;28;20050;-80
2023/07/20 03:02:19;;;;;;;6.22;3.67;;;;;;;13.43;92.65;101139.44;4910412;28;20039;-81
2023/07/20 03:04:44;;;;;;;4.00;3.10;;;;;;;13.42;92.96;101137.84;4946904;28;20038;-80
2023/07/20 03:07:10;;;;;;;5.80;3.08;;;;;;;13.43;92.82;101147.50;4939063;28;20027;-78
2023/07/20 03:09:35;;;;;;;3.33;2.40;;;;;;;13.43;92.81;101148.31;4943725;28;20475;-81
2023/07/20 03:12:01;;;;;;;4.13;3.00;;;;;;;13.43;92.66;101153.69;4921319;28;20034;-78
2023/07/20 03:14:27;;;;;;;4.75;3.30;;;;;;;13.43;92.74;101160.97;4946191;28;20043;-78
2023/07/20 03:16:54;;;;;;;6.13;3.47;;;;;;;13.44;92.71;101165.25;4943726;28;20396;-80
2023/07/20 03:19:20;;;;;;;5.05;3.65;;;;;;;13.43;92.97;101163.66;4943957;28;20039;-79
2023/07/20 03:21:46;;;;;;;3.22;2.60;;;;;;;13.43;92.73;101159.06;4931207;28;20035;-80
2023/07/20 03:24:11;;;;;;;;;;;;;;;13.43;92.59;101155.59;4923120;28;20047;-79
2023/07/20 03:26:37;;;;;;;3.92;3.25;;;;;;;13.42;92.31;101164.75;4945311;28;19914;-81
2023/07/20 03:29:04;;;;;;;3.90;3.13;;;;;;;13.42;92.65;101159.34;4939486;28;20086;-80
2023/07/20 03:31:30;;;;;;;5.03;3.50;;;;;;;13.39;92.41;101158.81;4929106;28;20122;-80
2023/07/20 03:33:55;;;;;;;3.78;3.28;;;;;;;13.38;92.42;101165.28;4919383;28;20145;-79
2023/07/20 03:36:22;;;;;;;8.02;3.70;;;;;;;13.36;92.48;101158.56;4912408;28;20080;-78
2023/07/20 03:38:47;;;;;;;;;;;;;;;13.38;92.81;101161.78;4945183;28;20035;-80
2023/07/20 03:41:14;;;;;;;3.75;2.83;;;;;;;13.36;92.77;101151.31;4938353;28;19930;-80
2023/07/20 03:43:40;;;;;;;4.28;3.20;;;;;;;13.32;92.93;101158.31;4948426;28;20030;-80
2023/07/20 03:46:06;;;;;;;6.07;3.75;;;;;;;13.35;93.09;101162.34;4935766;28;20043;-78
2023/07/20 03:48:33;;;;;;;4.40;2.97;;;;;;;13.35;92.86;101163.16;4945298;28;20046;-79
2023/07/20 03:51:00;;;;;;;4.65;3.13;;;;;;;13.36;93.13;101164.75;4936182;28;20047;-78
2023/07/20 03:53:26;;;;;;;3.85;2.60;;;;;;;13.37;92.89;101154.81;4942177;28;20043;-78
2023/07/20 03:55:53;;;;;;;6.50;2.65;;;;;;;13.34;92.84;101164.25;4940310;28;20041;-78
2023/07/20 03:58:20;;;;;;;4.90;2.33;;;;;;;13.36;92.87;101164.75;4938698;28;20046;-79
2023/07/20 04:00:46;;;;;;;4.25;2.83;;;;;;;13.36;92.80;101170.13;4926739;28;20039;-78
2023/07/20 04:03:12;;;;;;;4.28;2.70;;;;;;;13.37;93.16;101163.66;4944141;28;20035;-79
2023/07/20 04:05:38;;;;;;;;;;;;;;;13.37;93.08;101173.63;4910624;28;20564;-80
2023/07/20 04:08:04;;;;;;;4.97;2.83;;;;;;;13.37;93.05;101160.97;4937537;28;19957;-79
2023/07/20 04:10:30;;;;;;;2.75;2.30;;;;;;;13.38;92.98;101167.97;4934588;28;20126;-77
2023/07/20 04:12:55;;;;;;;5.38;3.05;;;;;;;13.39;93.33;101158.81;4939203;28;20114;-81
2023/07/20 04:15:21;;;;;;;;;;;;;;;13.39;93.08;101164.19;4949383;28;20039;-82
2023/07/20 04:17:47;;;;;;;4.07;2.58;;;;;;;13.42;93.36;101168.22;4947206;28;19929;-80
2023/07/20 04:20:12;;;;;;;4.30;3.15;;;;;;;13.45;93.57;101166.84;4944936;28;20764;-79
2023/07/20 04:22:38;;;;;;;3.70;2.88;;;;;;;13.46;93.22;101179.22;4926373;28;20039;-79
2023/07/20 04:25:07;;;;;;;5.15;3.95;;;;;;;13.47;93.57;101172.75;4943558;28;20039;-80
2023/07/20 04:27:33;;;;;;;4.82;3.28;;;;;;;13.50;93.78;101177.59;4940778;28;20126;-79
2023/07/20 04:29:59;;;;;;;4.00;3.13;;;;;;;13.51;93.81;101180.00;4952847;28;20153;-78
2023/07/20 04:32:26;;;;;;;5.05;3.25;;;;;;;13.53;93.71;101179.72;4946465;28;20035;-78
2023/07/20 04:34:52;;;;;;;3.60;3.20;;;;;;;13.54;93.32;101181.31;4947540;28;20074;-78
2023/07/20 04:37:18;;;;;;;5.82;3.10;;;;;;;13.55;93.40;101182.97;4921448;28;20030;-78
2023/07/20 04:39:45;;;;;;;4.25;2.97;;;;;;;13.58;93.39;101185.06;4946669;28;20041;-77
2023/07/20 04:42:11;;;;;;;5.50;3.58;;;;;;;13.59;93.22;101192.06;4921999;28;20354;-78
2023/07/20 04:44:37;;;;;;;3.88;3.38;;;;;;;13.60;93.12;101185.59;4943426;28;20501;-77
2023/07/20 04:47:03;;;;;;;5.38;4.05;;;;;;;13.61;93.13;101187.19;4936584;28;20694;-79
2023/07/20 04:49:32;;;;;;;3.88;2.83;;;;;;;13.60;93.25;101180.22;4945698;28;20031;-78
2023/07/20 04:51:58;;;;;;;5.72;3.45;;;;;;;13.63;93.56;101174.28;4904598;28;20166;-78
2023/07/20 04:54:23;;;;;;;4.15;3.30;;;;;;;13.59;92.96;101179.41;4943672;28;20039;-78
2023/07/20 04:56:49;;;;;;;;;;;;;;;13.58;92.13;101182.38;4944728;28;20054;-78
2023/07/20 04:59:15;;;;;;;2.95;2.40;;;;;;;13.63;92.45;101182.38;4938841;28;20641;-78
2023/07/20 05:01:41;;;;;;;4.13;2.95;;;;;;;13.65;92.36;101188.25;4928538;28;20126;-77
2023/07/20 05:04:07;;;;;;;4.65;3.25;;;;;;;13.71;93.52;101186.34;4938121;28;20051;-78
2023/07/20 05:06:34;;;;;;;4.82;3.22;;;;;;;13.75;93.45;101179.31;4941518;28;20047;-78
2023/07/20 05:09:00;;;;;;;4.68;3.53;;;;;;;13.80;93.68;101180.06;4917677;28;20050;-77
2023/07/20 05:11:26;;;;;;;4.93;3.20;;;;;;;13.83;93.02;101179.53;4943282;28;20037;-78
2023/07/20 05:13:52;;;;;;;4.10;3.00;;;;;;;13.87;93.07;101182.44;4913808;28;20884;-79
2023/07/20 05:16:17;;;;;;;4.05;3.25;;;;;;;13.88;93.53;101182.16;4938952;28;20400;-78
2023/07/20 05:18:43;;;;;;;4.57;3.28;;;;;;;13.87;92.02;101180.56;4943808;28;20063;-77
2023/07/20 05:21:09;;;;;;;;;;;;;;;13.90;92.94;101185.41;4937990;28;20146;-77
2023/07/20 05:23:35;;;;;;;6.13;3.72;;;;;;;13.92;93.16;101180.53;4943872;28;19918;-77
2023/07/20 05:26:01;;;;;;;5.10;3.97;;;;;;;13.96;93.04;101188.06;4919289;28;20027;-77
2023/07/20 05:28:27;;;;;;;4.43;3.30;;;;;;;13.99;93.12;101184.78;4944510;28;20547;-77
2023/07/20 05:30:53;;;;;;;4.25;3.20;;;;;;;14.03;92.84;101183.16;4944854;28;20516;-78
2023/07/20 05:33:20;;;;;;;4.07;3.40;;;;;;;14.04;93.25;101184.75;4942808;28;20043;-77
2023/07/20 05:35:46;;;;;;;4.38;3.80;;;;;;;14.09;93.56;101179.31;4925560;28;20034;-78
2023/07/20 05:38:12;;;;;;;5.00;4.10;;;;;;;14.13;93.33;101178.47;4936357;28;20058;-77
2023/07/20 05:40:41;;;;;;;8.52;3.80;;;;;;;14.19;93.52;101187.31;4942926;28;20122;-76
2023/07/20 05:43:06;;;;;;;4.93;4.38;;;;;;;14.28;93.32;101193.69;4935356;28;20461;-77
2023/07/20 05:45:32;;;;;;;4.47;3.30;;;;;;;14.36;93.44;101182.31;4942480;28;20118;-79
2023/07/20 05:47:57;;;;;;;4.70;3.28;;;;;;;14.40;93.19;101187.94;4920338;28;20122;-77
2023/07/20 05:50:23;;;;;;;4.63;3.42;;;;;;;14.44;92.81;101183.59;4941015;28;20027;-77
2023/07/20 05:52:53;;;;;;;5.32;3.60;;;;;;;14.47;93.51;101189.25;4925706;28;20043;-78
2023/07/20 05:55:18;;;;;;;5.70;4.25;;;;;;;14.54;92.19;101188.09;4941507;28;20062;-77
2023/07/20 05:57:44;;;;;;;5.68;3.53;;;;;;;14.55;90.49;101187.00;4941079;28;20075;-78
2023/07/20 06:00:10;;;;;;;6.05;4.80;;;;;;;14.57;90.61;101188.34;4934503;28;20121;-77
2023/07/20 06:02:39;;;;;;;5.88;3.90;;;;;;;14.67;91.57;101198.22;4943353;28;20057;-76
2023/07/20 06:05:09;;;;;;;5.63;4.75;;;;;;;14.79;91.92;101200.53;4939565;28;20062;-75
2023/07/20 06:07:36;;;;;;;4.57;3.92;;;;;;;14.80;91.56;101194.84;4941851;28;20050;-76
2023/07/20 06:10:02;;;;;;;6.90;3.42;;;;;;;14.83;91.03;101196.16;4941372;28;20031;-75
2023/07/20 06:12:28;;;;;;;6.13;3.90;;;;;;;14.88;90.96;101198.78;4935383;28;20630;-76
2023/07/20 06:14:54;;;;;;;;;;;;;;;14.94;91.53;101200.34;4940973;28;20126;-76
2023/07/20 06:17:20;;;;;;;5.68;4.75;;;;;;;14.99;92.69;101198.41;4936087;28;19914;-76
2023/07/20 06:19:45;;;;;;;;;;;;;;;15.07;92.27;101201.53;4924389;28;20046;-77
2023/07/20 06:22:11;;;;;;;4.68;4.18;;;;;;;15.13;93.12;101203.88;4942498;28;20692;-76
2023/07/20 06:24:36;;;;;;;;;;;;;;;15.14;91.67;101202.00;4923716;28;20049;-76
2023/07/20 06:27:03;;;;;;;5.07;3.80;;;;;;;15.21;91.29;101197.84;4951093;28;19918;-77
2023/07/20 06:29:28;;;;;;;4.53;2.90;;;;;;;15.29;89.66;101193.69;4940478;28;20116;-78
2023/07/20 06:31:54;;;;;;;;;;;;;;;15.38;90.92;101191.97;4941716;28;20587;-78
2023/07/20 06:34:20;;;;;;;7.45;3.30;;;;;;;15.42;89.92;101198.38;4954835;28;19953;-78
2023/07/20 06:36:46;;;;;;;3.97;3.00;;;;;;;15.51;89.88;101193.97;4941074;28;20058;-76
2023/07/20 06:39:11;;;;;;;;;;;;;;;15.65;90.13;101198.66;4943495;28;20110;-76
2023/07/20 06:41:37;;;;;;;3.95;2.88;;;;;;;15.68;90.85;101196.16;4924732;28;19926;-76
2023/07/20 06:44:03;;;;;;;4.15;3.15;;;;;;;15.70;89.55;101198.56;4943716;28;20545;-77
2023/07/20 06:46:28;;;;;;;4.60;2.63;;;;;;;15.67;87.89;101196.47;4953890;28;20031;-76
2023/07/20 06:48:55;;;;;;;3.40;2.40;;;;;;;15.66;88.68;101187.56;4941323;28;20043;-78
2023/07/20 06:51:20;;;;;;;;;;;;;;;15.60;85.71;101193.28;4940829;28;20034;-76
2023/07/20 06:53:46;;;;;;;4.47;2.10;;;;;;;15.60;87.12;101198.69;4944247;28;20380;-76
2023/07/20 06:56:12;;;;;;;;;;;;;;;15.55;86.99;101207.66;4934652;28;20059;-77
2023/07/20 06:58:38;;;;;;;2.55;1.80;;;;;;;15.40;86.86;101195.19;4942995;28;20363;-77
2023/07/20 07:01:08;;;;;;;4.22;1.83;;;;;;;15.27;83.24;101198.59;4942627;28;20106;-78
2023/07/20 07:03:33;;;;;;;5.22;2.15;;;;;;;15.31;86.34;101196.94;4937903;28;20667;-77
2023/07/20 07:06:00;;;;;;;3.90;1.88;;;;;;;15.37;86.73;101198.44;4936486;28;20043;-77
2023/07/20 07:08:26;;;;;;;2.72;1.73;;;;;;;15.51;84.49;101199.34;4927178;28;20595;-77
2023/07/20 07:10:52;;;;;;;3.05;1.83;;;;;;;15.67;84.08;101204.56;4943111;28;20070;-76
2023/07/20 07:13:19;;;;;;;3.60;2.42;;;;;;;15.73;85.45;101196.09;4943000;28;20085;-75
2023/07/20 07:15:45;;;;;;;5.03;1.88;;;;;;;15.77;84.16;101188.19;4940953;28;20039;-77
2023/07/20 07:18:13;;;;;;;6.15;2.50;;;;;;;15.77;87.54;101199.78;4920374;28;20045;-77
2023/07/20 07:20:38;;;;;;;3.47;1.60;;;;;;;15.71;83.85;101198.25;4944694;28;20027;-76
2023/07/20 07:23:04;;;;;;;3.10;1.48;;;;;;;15.63;83.01;101198.13;4937399;28;20420;-76
2023/07/20 07:25:31;;;;;;;;;;;;;;;15.70;79.22;101195.88;4941498;28;20118;-75
2023/07/20 07:27:57;;;;;;;3.25;1.52;;;;;;;15.93;81.14;101200.38;4936666;28;20974;-75
2023/07/20 07:30:22;;;;;;;4.18;2.05;;;;;;;15.92;81.90;101193.38;4942985;28;20775;-74
2023/07/20 07:32:48;;;;;;;;;;;;;;;15.85;81.12;101198.34;4941689;28;20588;-77
2023/07/20 07:35:13;;;;;;;4.38;2.03;;;;;;;15.99;79.69;101201.91;4917486;28;20107;-77
2023/07/20 07:37:39;;;;;;;2.67;2.00;;;;;;;16.07;81.36;101201.25;4958647;28;20089;-77
2023/07/20 07:40:07;;;;;;;4.00;1.70;;;;;;;15.98;80.42;101194.09;4933599;28;20146;-77
2023/07/20 07:42:33;;;;;;;5.13;1.60;;;;;;;16.03;81.10;101196.72;4946457;28;20051;-77
2023/07/20 07:44:59;;;;;;;5.95;1.70;;;;;;;16.18;77.56;101198.34;4945769;28;20043;-76
2023/07/20 07:47:25;;;;;;;3.15;1.77;;;;;;;16.44;78.07;101202.22;4940177;28;20040;-77
2023/07/20 07:49:51;;;;;;;;;;;;;;;16.40;77.99;101206.63;4960995;28;20049;-77
2023/07/20 07:52:16;;;;;;;3.67;2.20;;;;;;;16.32;78.11;101204.59;4939666;28;20431;-77
2023/07/20 07:54:42;;;;;;;3.67;1.73;;;;;;;16.19;78.23;101216.16;4928683;28;20037;-76
2023/07/20 07:57:08;;;;;;;;;;;;;;;16.06;77.60;101207.75;4945737;28;20038;-78
2023/07/20 07:59:36;;;;;;;3.60;1.95;;;;;;;16.24;79.26;101213.38;4926073;28;19925;-74
2023/07/20 08:02:04;;;;;;;3.55;1.80;;;;;;;16.42;77.22;101217.16;4928445;28;20042;-75
2023/07/20 08:04:30;;;;;;;4.90;1.52;;;;;;;16.57;76.68;101214.97;4970798;28;20125;-74
2023/07/20 08:06:56;;;;;;;;;;;;;;;16.71;73.06;101219.63;4944830;28;20169;-73
2023/07/20 08:09:22;;;;;;;3.78;2.20;;;;;;;16.98;75.91;101216.13;4921780;28;20036;-76
2023/07/20 08:11:48;;;;;;;;;;;;;;;17.05;74.81;101216.53;4944170;28;20041;-74
2023/07/20 08:14:14;;;;;;;3.92;2.10;;;;;;;17.03;78.04;101216.84;4937125;28;20661;-74
2023/07/20 08:16:39;;;;;;;;;;;;;;;16.75;73.23;101216.03;4912233;28;20078;-77
2023/07/20 08:19:05;;;;;;;5.05;2.10;;;;;;;16.60;71.95;101221.69;4921150;28;19977;-75
2023/07/20 08:21:31;;;;;;;4.80;1.77;;;;;;;16.45;70.28;101224.66;4911444;28;20031;-75
2023/07/20 08:23:56;;;;;;;;;;;;;;;16.65;72.33;101214.28;4935649;28;20696;-73
2023/07/20 08:26:23;;;;;;;5.47;2.40;;;;;;;16.89;76.96;101210.63;4941681;28;19918;-75
2023/07/20 08:28:49;;;;;;;3.75;2.38;;;;;;;17.12;76.47;101209.59;4940954;28;20035;-75
2023/07/20 08:31:15;;;;;;;;;;;;;;;17.31;71.08;101214.09;4939204;28;20028;-74
2023/07/20 08:33:40;;;;;;;6.43;1.90;;;;;;;17.50;70.92;101220.19;4927610;28;19918;-76
2023/07/20 08:36:06;;;;;;;;;;;;;;;17.48;69.92;101214.28;4936676;28;20042;-76
2023/07/20 08:38:31;;;;;;;6.47;2.08;;;;;;;17.45;72.53;101218.38;4942600;28;19973;-75
2023/07/20 08:40:59;;;;;;;;;;;;;;;17.28;69.55;101214.72;4945456;28;20066;-77
2023/07/20 08:43:25;;;;;;;5.60;2.47;;;;;;;17.23;67.05;101222.94;4943628;28;19914;-75
2023/07/20 08:45:53;;;;;;;;;;;;;;;17.38;68.58;101222.63;4943535;28;20035;-75
2023/07/20 08:48:20;;;;;;;4.88;2.58;;;;;;;17.67;69.32;101220.34;4943674;28;19923;-75
2023/07/20 08:50:49;;;;;;;5.75;2.20;;;;;;;17.94;71.35;101226.81;4945846;28;20384;-75
2023/07/20 08:53:15;;;;;;;6.85;4.07;;;;;;;17.95;71.41;101228.41;4918829;28;20039;-76
2023/07/20 08:55:43;;;;;;;;;;;;;;;17.90;71.53;101236.66;4928127;28;20031;-77
2023/07/20 08:58:12;;;;;;;4.68;2.47;;;;;;;17.73;70.37;101227.28;4945200;28;19981;-75
2023/07/20 09:00:39;;;;;;;5.72;2.40;;;;;;;17.50;71.07;101228.31;4910212;28;20527;-75
2023/07/20 09:03:05;;;;;;;7.00;2.45;;;;;;;17.30;69.35;101232.25;4936179;28;20484;-75
2023/07/20 09:05:31;;;;;;;6.20;2.58;;;;;;;17.13;68.65;101230.16;4943800;28;20035;-77
2023/07/20 09:07:56;;;;;;;;;;;;;;;17.17;72.10;101238.47;4944038;28;20042;-75
2023/07/20 09:10:24;;;;;;;5.28;2.83;;;;;;;17.32;69.36;101240.06;4943985;28;19944;-75
2023/07/20 09:12:50;;;;;;;4.25;2.33;;;;;;;17.54;67.88;101237.41;4943951;28;20097;-76
2023/07/20 09:15:17;;;;;;;7.80;2.90;;;;;;;17.79;68.07;101240.72;4912120;28;20552;-74
2023/07/20 09:17:48;;;;;;;6.00;2.55;;;;;;;18.08;70.54;101227.53;4943575;28;20208;-74
2023/07/20 09:20:17;;;;;;;7.18;2.38;;;;;;;18.27;68.39;101225.44;4938514;28;20183;-76
2023/07/20 09:22:43;;;;;;;5.88;2.40;;;;;;;18.43;67.12;101222.38;4930192;28;20599;-76
2023/07/20 09:25:14;;;;;;;4.85;2.20;;;;;;;18.41;62.51;101230.00;4937229;28;20049;-78
2023/07/20 09:27:42;;;;;;;5.60;1.88;;;;;;;18.54;70.26;101234.53;4944451;28;20042;-76
2023/07/20 09:30:09;;;;;;;5.60;1.75;;;;;;;18.56;63.51;101232.34;4945440;28;20043;-75
2023/07/20 09:32:48;;;;;;;4.93;1.80;;;;;;;18.74;65.61;101228.59;4946059;28;21294;-76
2023/07/20 09:35:19;;;;;;;6.93;2.00;;;;;;;18.78;60.95;101226.88;4954474;28;20110;-76
2023/07/20 09:37:54;;;;;;;4.30;1.95;;;;;;;18.60;59.74;101230.59;4944821;28;22487;-77
2023/07/20 09:40:20;;;;;;;5.57;2.20;;;;;;;18.80;59.95;101232.78;4913349;28;20038;-75
2023/07/20 09:42:47;;;;;;;5.00;1.80;;;;;;;19.01;65.14;101232.22;4943946;28;20042;-77
2023/07/20 09:45:12;;;;;;;6.85;2.10;;;;;;;18.77;67.53;101243.47;4936155;28;20042;-78
2023/07/20 09:47:39;;;;;;;8.52;2.95;;;;;;;18.11;70.26;101275.72;4926774;28;20066;-76
2023/07/20 09:50:11;;;;;;;7.70;2.55;;;;;;;17.49;74.23;101283.59;4947237;28;20553;-78
2023/07/20 09:52:40;;;;;;;7.78;1.85;;;;;;;17.12;74.97;101277.25;4946346;28;20042;-80
2023/07/20 09:55:08;;;;;;;6.47;2.42;;;;;;;16.92;78.05;101272.25;4921373;28;20047;-77
2023/07/20 09:57:35;;;;;;;3.88;2.45;;;;;;;16.78;78.21;101272.22;4925379;28;20118;-76
2023/07/20 10:00:08;;;;;;;4.78;1.52;;;;;;;16.60;75.89;101263.06;4935944;28;20186;-75
2023/07/20 10:02:41;;;;;;;3.67;1.70;;;;;;;16.58;78.37;101276.06;4944156;28;20042;-77
2023/07/20 10:05:09;;;;;;;3.80;1.40;;;;;;;16.45;77.69;101268.69;4920183;28;21608;-76
2023/07/20 10:07:35;;;;;;;4.22;2.05;;;;;;;16.58;80.88;101261.72;4958385;28;20192;-75
2023/07/20 10:10:03;;;;;;;3.65;1.70;;;;;;;16.62;79.64;101262.75;4902708;28;20058;-76
2023/07/20 10:12:30;;;;;;;3.33;1.83;;;;;;;16.82;80.69;101261.63;4957765;28;20031;-76
2023/07/20 10:15:18;;;;;;;5.72;1.92;;;;;;;17.00;80.15;101252.63;4911946;28;20035;-75
2023/07/20 10:17:59;;;;;;;4.47;1.90;;;;;;;17.18;80.70;101243.59;4943735;28;20501;-78
2023/07/20 10:20:25;;;;;;;4.03;2.10;;;;;;;17.41;81.10;101251.81;4936590;28;20110;-77
2023/07/20 10:22:53;;;;;;;4.57;1.42;;;;;;;17.56;81.42;101237.13;4942506;28;20644;-76
2023/07/20 10:25:22;;;;;;;6.10;1.90;;;;;;;17.64;77.53;101233.69;4919898;28;20039;-74
2023/07/20 10:27:48;;;;;;;4.30;1.70;;;;;;;17.76;77.03;101236.72;4942976;28;20114;-74
2023/07/20 10:30:14;;;;;;;4.30;1.50;;;;;;;17.85;74.03;101231.34;4941858;28;20032;-73
2023/07/20 10:32:42;;;;;;;6.00;1.60;;;;;;;17.89;76.87;101235.06;4924765;28;21013;-77
2023/07/20 10:35:15;;;;;;;3.60;1.70;;;;;;;18.13;79.38;101224.72;4919811;28;20047;-74
2023/07/20 10:37:52;;;;;;;5.25;1.65;;;;;;;18.10;77.83;101229.97;4943066;28;20854;-76
2023/07/20 10:40:32;;;;;;;4.90;1.77;;;;;;;17.88;73.41;101233.44;4921304;28;20058;-77
2023/07/20 10:43:07;;;;;;;4.07;1.40;;;;;;;18.04;76.24;101221.16;4957662;28;20114;-79
2023/07/20 10:45:40;;;;;;;4.80;1.77;;;;;;;18.21;71.38;101232.09;4922068;28;20445;-75
2023/07/20 10:48:14;;;;;;;3.20;1.38;;;;;;;18.34;76.43;101219.59;4936500;28;20039;-75
2023/07/20 10:50:41;;;;;;;5.20;1.60;;;;;;;18.21;67.96;101232.09;4926337;28;20551;-76
2023/07/20 10:53:18;;;;;;;4.20;1.50;;;;;;;18.03;70.03;101226.88;4937604;28;20040;-75
2023/07/20 10:55:46;;;;;;;5.88;1.73;;;;;;;17.80;69.38;101226.84;4943131;28;20106;-77
2023/07/20 10:58:17;;;;;;;2.88;1.60;;;;;;;17.74;74.08;101236.19;4934535;28;20039;-81
2023/07/20 11:00:57;;;;;;;5.15;1.52;;;;;;;17.42;73.70;101254.22;4959906;28;21001;-76
2023/07/20 11:03:30;;;;;;;3.58;1.52;;;;;;;17.55;79.51;101255.28;4923231;28;20862;-76
2023/07/20 11:05:58;;;;;;;4.18;0.98;;;;;;;17.58;75.83;101251.97;4938506;28;20062;-75
2023/07/20 11:08:43;;;;;;;2.95;1.25;;;;;;;17.53;77.83;101257.47;4923882;28;20035;-75
2023/07/20 11:11:27;;;;;;;2.65;1.40;;;;;;;17.53;78.14;101249.34;4941824;28;20042;-76
2023/07/20 11:14:03;;;;;;;2.97;1.13;;;;;;;17.54;76.04;101250.97;4943135;28;20114;-77
2023/07/20 11:16:44;;;;;;;2.88;1.00;;;;;;;17.81;73.63;101243.91;4973876;28;20043;-78
2023/07/20 11:19:24;;;;;;;3.53;1.20;;;;;;;18.09;71.45;101256.28;4950054;28;20522;-79
2023/07/20 11:21:51;;;;;;;3.95;2.05;;;;;;;17.82;73.59;101272.63;4949223;28;20382;-79
2023/07/20 11:24:18;;;;;;;7.18;1.30;;;;;;;17.63;72.23;101280.84;4943163;28;20504;-76
2023/07/20 11:26:45;;;;;;;2.85;1.20;;;;;;;17.44;75.45;101284.47;4932707;28;20039;-76
2023/07/20 11:29:11;;;;;;;3.80;1.10;;;;;;;17.18;71.59;101286.88;4925710;28;20109;-76
2023/07/20 11:31:38;;;;;;;2.17;1.10;;;;;;;16.98;73.76;101281.06;4950106;28;20063;-76
2023/07/20 11:34:05;;;;;;;2.53;0.95;;;;;;;16.78;73.46;101282.25;4926146;28;20037;-77
2023/07/20 11:36:31;;;;;;;3.17;1.40;;;;;;;16.81;74.74;101281.66;4937644;28;20047;-76